Time;durP1;ratioP1;P1;durP2;ratioP2;P2;SDS_P1;SDS_P2;PMS_P1;PMS_P2;Temp;Humidity;BMP_temperature;BMP_pressure;BME280_temperature;BME280_humidity;BME280_pressure;Samples;Min_cycle;Max_cycle;Signal;HPM_P1;HPM_P2
2022/06/07 00:02:12;;;;;;;27.67;25.00;;;;;;;12.49;95.48;101254.38;5039990;28;20033;-67
2022/06/07 00:04:38;;;;;;;29.48;26.63;;;;;;;12.37;95.49;101248.41;5034782;28;20416;-67
2022/06/07 00:07:04;;;;;;;29.88;26.98;;;;;;;12.47;95.51;101249.31;5042555;28;20437;-69
2022/06/07 00:09:29;;;;;;;30.30;27.30;;;;;;;12.49;95.17;101241.38;5037500;28;20557;-67
2022/06/07 00:11:55;;;;;;;31.33;28.25;;;;;;;12.47;95.30;101238.06;5040435;28;20338;-67
2022/06/07 00:14:21;;;;;;;30.48;27.65;;;;;;;12.44;95.16;101233.13;5023226;28;20068;-67
2022/06/07 00:16:46;;;;;;;31.15;28.20;;;;;;;12.41;95.75;101234.19;5036733;28;20461;-67
2022/06/07 00:19:11;;;;;;;31.63;28.63;;;;;;;12.50;95.26;101237.81;5043698;28;20033;-67
2022/06/07 00:21:37;;;;;;;32.03;29.10;;;;;;;12.38;96.08;101229.25;5043715;28;20519;-67
2022/06/07 00:24:04;;;;;;;32.55;29.13;;;;;;;12.51;95.62;101233.47;5035287;28;20049;-67
2022/06/07 00:26:31;;;;;;;32.03;29.02;;;;;;;12.51;95.51;101234.28;5041665;28;20124;-67
2022/06/07 00:28:57;;;;;;;31.10;28.20;;;;;;;12.51;95.30;101223.88;5044271;28;20017;-67
2022/06/07 00:31:22;;;;;;;32.17;28.90;;;;;;;12.56;95.68;101221.72;5041991;28;20035;-67
2022/06/07 00:33:48;;;;;;;31.15;28.15;;;;;;;12.44;95.28;101217.50;5044152;28;20024;-68
2022/06/07 00:36:14;;;;;;;32.50;29.50;;;;;;;12.47;95.65;101217.25;5043873;28;20472;-68
2022/06/07 00:38:43;;;;;;;33.08;30.02;;;;;;;12.49;95.86;101215.34;5039385;28;20620;-67
2022/06/07 00:41:09;;;;;;;32.20;29.15;;;;;;;12.53;95.51;101216.75;5039304;28;20037;-67
2022/06/07 00:43:34;;;;;;;33.55;30.25;;;;;;;12.48;95.48;101213.69;5040696;28;20457;-67
2022/06/07 00:46:00;;;;;;;34.47;31.13;;;;;;;12.49;95.97;101215.34;5044083;28;20033;-69
2022/06/07 00:48:27;;;;;;;34.53;31.17;;;;;;;12.45;96.08;101208.78;5029967;28;20526;-68
2022/06/07 00:50:58;;;;;;;36.08;32.47;;;;;;;12.47;95.51;101207.69;5042203;28;20025;-67
2022/06/07 00:53:31;;;;;;;37.22;33.60;;;;;;;12.49;96.16;101204.94;5044751;28;20036;-67
2022/06/07 00:55:57;;;;;;;37.00;33.40;;;;;;;12.52;95.77;101198.66;5036124;28;20043;-67
2022/06/07 00:58:26;;;;;;;37.63;33.95;;;;;;;12.48;95.74;101203.28;5041532;28;20465;-70
2022/06/07 01:00:52;;;;;;;38.20;34.58;;;;;;;12.50;95.60;101211.78;5044608;28;20063;-69
2022/06/07 01:03:20;;;;;;;39.75;35.78;;;;;;;12.44;95.83;101197.53;5046836;28;20072;-67
2022/06/07 01:05:50;;;;;;;40.92;36.67;;;;;;;12.44;96.39;101196.69;5044735;28;20039;-67
2022/06/07 01:11:00;;;;;;;42.50;38.45;;;;;;;12.46;96.27;101194.81;5040687;28;20432;-69
2022/06/07 01:13:32;;;;;;;42.38;38.00;;;;;;;12.41;96.74;101191.75;5046439;28;20033;-67
2022/06/07 01:16:03;;;;;;;43.47;39.05;;;;;;;12.42;97.16;101189.03;5041939;28;20037;-67
2022/06/07 01:18:31;;;;;;;43.15;38.83;;;;;;;12.51;96.29;101194.44;5038838;28;20465;-67
2022/06/07 01:21:16;;;;;;;41.85;37.72;;;;;;;12.60;95.86;101193.63;5046232;28;20090;-67
2022/06/07 01:23:43;;;;;;;40.20;36.20;;;;;;;12.56;95.92;101185.28;5047597;28;20025;-67
2022/06/07 01:26:10;;;;;;;41.10;37.17;;;;;;;12.56;95.99;101187.88;5041764;28;20040;-68
2022/06/07 01:28:35;;;;;;;40.33;36.42;;;;;;;12.56;95.45;101180.06;5033152;28;20021;-67
2022/06/07 01:31:01;;;;;;;41.33;37.38;;;;;;;12.56;95.76;101174.88;5044995;28;20025;-69
2022/06/07 01:33:26;;;;;;;40.60;36.63;;;;;;;12.52;95.51;101173.47;5046630;28;20025;-67
2022/06/07 01:36:05;;;;;;;40.72;36.70;;;;;;;12.61;95.92;101177.88;5045605;28;20461;-67
2022/06/07 01:38:32;;;;;;;39.85;36.20;;;;;;;12.61;95.26;101177.88;5047120;28;20068;-67
2022/06/07 01:43:42;;;;;;;41.22;37.05;;;;;;;12.56;94.97;101164.47;5045277;28;20070;-67
2022/06/07 01:46:07;;;;;;;41.70;37.63;;;;;;;12.59;95.44;101169.41;5047620;28;20029;-67
2022/06/07 01:48:33;;;;;;;41.85;37.75;;;;;;;12.53;94.67;101146.50;5031932;28;20029;-67
2022/06/07 01:51:03;;;;;;;41.17;37.25;;;;;;;12.52;95.60;101163.06;5046744;28;20059;-67
2022/06/07 01:53:29;;;;;;;40.92;36.92;;;;;;;12.55;94.93;101162.78;5044519;28;20037;-67
2022/06/07 01:56:07;;;;;;;41.42;37.13;;;;;;;12.51;95.32;101153.63;5046886;28;20094;-67
2022/06/07 01:58:33;;;;;;;40.83;36.97;;;;;;;12.49;94.94;101158.94;5032351;28;20037;-67
2022/06/07 02:00:59;;;;;;;41.63;37.63;;;;;;;12.54;94.95;101149.91;5046486;28;20029;-69
2022/06/07 02:03:24;;;;;;;39.28;35.42;;;;;;;12.48;94.90;101148.66;5042801;28;20029;-67
2022/06/07 02:06:05;;;;;;;40.55;36.55;;;;;;;12.50;94.81;101141.53;5043989;28;20029;-67
2022/06/07 02:08:31;;;;;;;37.63;34.03;;;;;;;12.53;94.72;101149.09;5030522;28;20033;-70
2022/06/07 02:11:05;;;;;;;39.63;35.80;;;;;;;12.48;94.76;101151.25;5045034;28;20128;-68
2022/06/07 02:13:31;;;;;;;38.30;34.58;;;;;;;12.35;94.64;101129.84;5043760;28;20029;-67
2022/06/07 02:15:57;;;;;;;38.25;34.53;;;;;;;12.36;94.62;101132.31;5043634;28;20029;-66
2022/06/07 02:18:22;;;;;;;38.08;34.55;;;;;;;12.42;94.63;101137.00;5045747;28;20441;-66
2022/06/07 02:20:47;;;;;;;36.92;33.38;;;;;;;12.47;94.37;101144.41;5044163;28;20107;-69
2022/06/07 02:23:13;;;;;;;37.95;34.38;;;;;;;12.38;94.63;101135.59;5043860;28;20491;-66
2022/06/07 02:25:47;;;;;;;37.22;33.58;;;;;;;12.45;94.96;101146.34;5046768;28;20032;-66
2022/06/07 02:28:14;;;;;;;37.03;33.38;;;;;;;12.38;94.57;101124.38;5040187;28;20020;-68
2022/06/07 02:30:41;;;;;;;35.70;32.33;;;;;;;12.45;94.03;101141.13;5044006;28;20024;-69
2022/06/07 02:33:08;;;;;;;36.28;32.78;;;;;;;12.43;94.02;101132.63;5037207;28;20113;-66
2022/06/07 02:35:35;;;;;;;36.00;32.38;;;;;;;12.42;93.86;101136.19;5043548;28;20039;-69
2022/06/07 02:38:01;;;;;;;35.47;31.95;;;;;;;12.37;94.12;101130.53;5042363;28;20037;-67
2022/06/07 02:40:27;;;;;;;35.38;32.00;;;;;;;12.35;94.51;101132.44;5046801;28;20181;-68
2022/06/07 02:42:52;;;;;;;35.47;32.08;;;;;;;12.38;94.88;101146.00;5039575;28;20537;-66
2022/06/07 02:45:17;;;;;;;36.65;33.22;;;;;;;12.35;94.82;101141.06;5045757;28;20040;-67
2022/06/07 02:47:43;;;;;;;36.22;32.67;;;;;;;12.41;94.69;101140.56;5046280;28;20420;-67
2022/06/07 02:50:10;;;;;;;37.40;33.72;;;;;;;12.32;95.17;101146.53;5043979;28;20035;-66
2022/06/07 02:52:36;;;;;;;36.08;32.65;;;;;;;12.38;94.79;101150.38;5043613;28;20071;-66
2022/06/07 02:55:01;;;;;;;36.95;33.22;;;;;;;12.33;95.41;101142.13;5044765;28;20033;-67
2022/06/07 02:57:27;;;;;;;37.90;34.33;;;;;;;12.38;95.00;101135.59;5036116;28;20511;-67
2022/06/07 02:59:52;;;;;;;37.13;33.35;;;;;;;12.37;95.56;101133.94;5045777;28;20028;-67
2022/06/07 03:02:18;;;;;;;36.50;32.78;;;;;;;12.31;95.67;101133.66;5041553;28;20068;-67
2022/06/07 03:04:43;;;;;;;36.55;32.97;;;;;;;12.40;96.23;101141.50;5043596;28;20507;-67
2022/06/07 03:07:09;;;;;;;36.55;32.97;;;;;;;12.37;95.94;101140.94;5039890;28;20033;-67
2022/06/07 03:09:34;;;;;;;36.72;33.33;;;;;;;12.46;95.77;101138.41;5045334;28;20021;-67
2022/06/07 03:12:01;;;;;;;37.35;33.65;;;;;;;12.45;96.06;101131.56;5044756;28;20024;-68
2022/06/07 03:14:26;;;;;;;35.97;32.47;;;;;;;12.39;95.49;101137.28;5044723;28;20083;-68
2022/06/07 03:16:51;;;;;;;34.90;31.52;;;;;;;12.43;95.77;101138.63;5046288;28;20468;-69
2022/06/07 03:19:17;;;;;;;35.83;32.30;;;;;;;12.45;94.74;101141.97;5044860;28;20033;-67
2022/06/07 03:21:42;;;;;;;35.33;32.03;;;;;;;12.38;95.33;101129.56;5046825;28;20047;-67
2022/06/07 03:24:08;;;;;;;35.13;31.90;;;;;;;12.35;95.25;101132.44;5040794;28;20027;-68
2022/06/07 03:26:34;;;;;;;34.58;31.17;;;;;;;12.46;95.04;101138.41;5046070;28;20485;-67
2022/06/07 03:29:00;;;;;;;34.15;30.80;;;;;;;12.46;94.89;101137.56;5041110;28;20016;-68
2022/06/07 03:31:25;;;;;;;33.35;30.23;;;;;;;12.37;94.59;101133.94;5045929;28;20372;-67
2022/06/07 03:33:51;;;;;;;34.67;31.38;;;;;;;12.40;95.16;101140.69;5036381;28;20043;-68
2022/06/07 03:36:20;;;;;;;33.67;30.48;;;;;;;12.39;95.00;101144.25;5044699;28;20033;-67
2022/06/07 03:38:45;;;;;;;33.97;30.80;;;;;;;12.40;95.00;101149.31;5045591;28;20032;-67
2022/06/07 03:41:16;;;;;;;33.05;29.92;;;;;;;12.40;95.07;101148.50;5046321;28;20116;-67
2022/06/07 03:43:42;;;;;;;32.92;29.60;;;;;;;12.33;94.84;101143.00;5042205;28;20032;-67
2022/06/07 03:46:13;;;;;;;32.47;29.38;;;;;;;12.25;95.24;101140.19;5044637;28;20033;-68
2022/06/07 03:48:42;;;;;;;32.72;29.70;;;;;;;12.33;94.75;101152.53;5042011;28;20424;-67
2022/06/07 03:51:08;;;;;;;34.03;30.77;;;;;;;12.27;95.31;101146.06;5038978;28;20035;-68
2022/06/07 03:53:34;;;;;;;32.78;29.45;;;;;;;12.28;94.88;101139.94;5039842;28;20080;-67
2022/06/07 03:55:59;;;;;;;34.20;30.90;;;;;;;12.25;95.53;101145.38;5037290;28;20063;-69
2022/06/07 03:58:25;;;;;;;32.72;29.52;;;;;;;12.29;95.71;101144.19;5031492;28;20021;-68
2022/06/07 04:00:54;;;;;;;32.20;29.25;;;;;;;12.21;95.50;101144.84;5034618;28;20112;-67
2022/06/07 04:03:20;;;;;;;33.00;29.90;;;;;;;12.19;94.89;101151.94;5033787;28;20084;-66
2022/06/07 04:05:45;;;;;;;33.92;30.45;;;;;;;12.16;95.28;101147.00;5033753;28;20124;-67
2022/06/07 04:08:11;;;;;;;33.58;30.38;;;;;;;12.14;95.67;101148.88;5029501;28;20021;-68
2022/06/07 04:10:43;;;;;;;33.33;30.13;;;;;;;12.10;96.16;101155.31;5028740;28;20082;-66
2022/06/07 04:13:08;;;;;;;33.78;30.63;;;;;;;12.22;95.82;101151.69;5039660;28;20025;-69
2022/06/07 04:15:34;;;;;;;34.67;31.40;;;;;;;12.17;96.15;101156.44;5029848;28;20159;-67
2022/06/07 04:18:00;;;;;;;34.50;31.23;;;;;;;12.13;95.79;101142.03;5044789;28;20074;-68
2022/06/07 04:20:25;;;;;;;34.38;30.98;;;;;;;12.21;95.59;101150.03;5041948;28;20026;-68
2022/06/07 04:22:50;;;;;;;35.22;31.83;;;;;;;12.20;95.30;101148.38;5046397;28;20033;-67
2022/06/07 04:25:16;;;;;;;33.88;30.88;;;;;;;12.22;95.54;101154.28;5048352;28;20032;-66
2022/06/07 04:27:41;;;;;;;34.47;31.27;;;;;;;12.25;94.93;101154.97;5048998;28;20384;-67
2022/06/07 04:30:08;;;;;;;34.65;31.23;;;;;;;12.19;95.24;101151.94;5040587;28;20029;-66
2022/06/07 04:32:33;;;;;;;34.03;30.88;;;;;;;12.15;95.74;101145.31;5039010;28;20771;-67
2022/06/07 04:34:59;;;;;;;34.58;31.25;;;;;;;12.17;95.15;101151.25;5034330;28;20809;-66
2022/06/07 04:37:24;;;;;;;33.60;30.55;;;;;;;12.22;95.24;101151.69;5047533;28;20032;-67
2022/06/07 04:39:50;;;;;;;34.08;30.70;;;;;;;12.20;95.16;101163.97;5047850;28;20021;-68
2022/06/07 04:42:16;;;;;;;34.60;31.38;;;;;;;12.07;95.41;101146.94;5039644;28;20544;-66
2022/06/07 04:44:41;;;;;;;33.20;30.02;;;;;;;12.20;95.02;101165.75;5037043;28;20052;-68
2022/06/07 04:47:06;;;;;;;33.13;29.90;;;;;;;12.18;95.44;101171.09;5043841;28;20028;-67
2022/06/07 04:49:32;;;;;;;32.78;29.73;;;;;;;12.15;95.21;101176.53;5046645;28;20043;-67
2022/06/07 04:51:57;;;;;;;31.55;28.50;;;;;;;12.13;95.20;101168.03;5046706;28;20041;-67
2022/06/07 04:54:23;;;;;;;31.27;28.20;;;;;;;12.14;95.21;101174.88;5039259;28;20488;-67
2022/06/07 04:56:48;;;;;;;31.50;28.60;;;;;;;12.12;95.66;101176.78;5046417;28;20039;-69
2022/06/07 04:59:14;;;;;;;29.63;26.83;;;;;;;12.16;95.31;101173.00;5040933;28;20036;-68
2022/06/07 05:01:42;;;;;;;28.23;25.63;;;;;;;12.11;95.49;101175.16;5042165;28;20090;-67
2022/06/07 05:04:09;;;;;;;26.65;24.15;;;;;;;12.13;95.17;101172.41;5047401;28;20074;-67
2022/06/07 05:06:38;;;;;;;28.15;25.30;;;;;;;12.17;95.64;101184.22;5043372;28;20033;-67
2022/06/07 05:09:09;;;;;;;26.77;24.00;;;;;;;12.16;95.12;101183.41;5046563;28;20029;-66
2022/06/07 05:11:34;;;;;;;26.85;24.23;;;;;;;12.15;94.62;101188.72;5045751;28;20032;-68
2022/06/07 05:14:04;;;;;;;24.67;22.35;;;;;;;12.26;94.62;101187.81;5044140;28;20377;-67
2022/06/07 05:16:30;;;;;;;26.20;23.77;;;;;;;12.18;94.84;101191.88;5047777;28;20020;-66
2022/06/07 05:18:56;;;;;;;27.13;24.30;;;;;;;12.19;94.45;101193.53;5046890;28;20040;-67
2022/06/07 05:21:23;;;;;;;25.67;23.05;;;;;;;12.27;94.61;101189.47;5043105;28;20037;-67
2022/06/07 05:23:49;;;;;;;26.27;23.77;;;;;;;12.26;94.83;101190.41;5043859;28;20031;-66
2022/06/07 05:26:37;;;;;;;26.95;24.25;;;;;;;12.34;94.26;101193.22;5041706;28;20029;-68
2022/06/07 05:29:04;;;;;;;26.50;23.98;;;;;;;12.36;94.73;101188.72;5036558;28;20513;-67
2022/06/07 05:31:29;;;;;;;27.20;24.42;;;;;;;12.25;94.70;101187.00;5036991;28;20492;-66
2022/06/07 05:33:55;;;;;;;26.73;24.05;;;;;;;12.39;94.53;101196.28;5038640;28;20041;-67
2022/06/07 05:36:21;;;;;;;26.25;23.65;;;;;;;12.39;94.90;101198.88;5046918;28;20044;-66
2022/06/07 05:38:47;;;;;;;29.02;26.05;;;;;;;12.35;95.50;101200.91;5046025;28;20067;-69
2022/06/07 05:41:29;;;;;;;28.00;25.23;;;;;;;12.42;94.97;101198.59;5046675;28;20095;-67
2022/06/07 05:43:54;;;;;;;28.50;25.45;;;;;;;12.45;94.98;101199.19;5039030;28;20065;-69
2022/06/07 05:46:19;;;;;;;28.30;25.60;;;;;;;12.49;95.07;101197.13;5041683;28;20112;-66
2022/06/07 05:48:45;;;;;;;28.75;25.90;;;;;;;12.41;95.12;101191.75;5038467;28;20017;-66
2022/06/07 05:51:10;;;;;;;27.35;24.65;;;;;;;12.51;94.78;101197.84;5040915;28;20068;-66
2022/06/07 05:53:36;;;;;;;28.75;25.92;;;;;;;12.52;94.84;101199.50;5046988;28;20024;-67
2022/06/07 05:56:11;;;;;;;28.73;25.83;;;;;;;12.56;95.15;101190.50;5046402;28;20527;-66
2022/06/07 05:58:37;;;;;;;28.52;25.90;;;;;;;12.58;94.67;101201.59;5045461;28;20029;-67
2022/06/07 06:01:04;;;;;;;29.80;27.00;;;;;;;12.55;94.54;101201.00;5044906;28;20492;-66
2022/06/07 06:03:30;;;;;;;30.60;27.67;;;;;;;12.61;94.62;101203.91;5046376;28;20547;-66
2022/06/07 06:05:56;;;;;;;30.42;27.48;;;;;;;12.64;94.86;101198.47;5037242;28;20370;-66
2022/06/07 06:11:07;;;;;;;32.92;29.83;;;;;;;12.60;95.11;101201.44;5038972;28;20028;-66
2022/06/07 06:13:35;;;;;;;34.30;30.27;;;;;;;12.72;95.22;101206.44;5037361;28;20033;-67
2022/06/07 06:16:18;;;;;;;33.25;29.95;;;;;;;12.76;95.05;101205.22;5041018;28;20025;-67
2022/06/07 06:18:47;;;;;;;33.92;30.70;;;;;;;12.84;94.59;101209.78;5037663;28;20747;-66
2022/06/07 06:21:13;;;;;;;32.08;28.92;;;;;;;12.77;95.07;101193.84;5031470;28;20040;-67
2022/06/07 06:23:38;;;;;;;34.45;30.95;;;;;;;12.85;95.30;101201.03;5035443;28;20029;-70
2022/06/07 06:26:08;;;;;;;34.25;30.85;;;;;;;12.95;94.97;101201.06;5038608;28;20025;-66
2022/06/07 06:28:34;;;;;;;32.47;29.35;;;;;;;12.92;94.90;101206.53;5046708;28;20101;-69
2022/06/07 06:31:03;;;;;;;35.00;31.67;;;;;;;12.93;95.11;101208.19;5043555;28;20143;-66
2022/06/07 06:33:28;;;;;;;32.78;29.48;;;;;;;12.91;94.20;101194.47;5045458;28;20063;-66
2022/06/07 06:35:55;;;;;;;33.60;30.40;;;;;;;12.95;94.31;101201.06;5045949;28;20025;-67
2022/06/07 06:38:22;;;;;;;33.67;30.45;;;;;;;12.95;94.48;101211.47;5045630;28;20108;-67
2022/06/07 06:40:48;;;;;;;32.42;29.38;;;;;;;13.08;94.57;101212.09;5046728;28;20021;-67
2022/06/07 06:43:15;;;;;;;31.50;28.55;;;;;;;13.12;94.34;101208.25;5032733;28;20033;-69
2022/06/07 06:45:42;;;;;;;32.83;29.52;;;;;;;13.12;94.53;101205.63;5028030;28;20075;-68
2022/06/07 06:48:08;;;;;;;32.50;29.35;;;;;;;13.20;94.52;101205.81;5031204;28;20427;-67
2022/06/07 06:50:35;;;;;;;33.13;30.02;;;;;;;13.20;94.07;101200.59;5031616;28;20067;-67
2022/06/07 06:53:01;;;;;;;33.33;30.08;;;;;;;13.37;94.17;101211.38;5045544;28;20056;-66
2022/06/07 06:55:26;;;;;;;32.53;29.45;;;;;;;13.39;93.99;101209.44;5041282;28;20025;-67
2022/06/07 06:57:52;;;;;;;33.53;30.52;;;;;;;13.42;93.92;101209.16;5043964;28;20036;-67
2022/06/07 07:00:17;;;;;;;33.80;30.55;;;;;;;13.47;93.32;101209.59;5042384;28;20518;-67
2022/06/07 07:02:44;;;;;;;33.88;30.67;;;;;;;13.46;94.04;101220.97;5031329;28;20065;-68
2022/06/07 07:05:12;;;;;;;34.60;31.33;;;;;;;13.51;93.84;101213.59;5040648;28;20425;-69
2022/06/07 07:07:38;;;;;;;34.28;31.08;;;;;;;13.53;93.94;101206.44;5040664;28;20468;-66
2022/06/07 07:10:04;;;;;;;35.33;31.92;;;;;;;13.61;93.54;101209.22;5039147;28;20040;-66
2022/06/07 07:12:31;;;;;;;36.20;32.92;;;;;;;13.71;93.55;101209.25;5040604;28;20052;-67
2022/06/07 07:14:57;;;;;;;38.03;34.60;;;;;;;13.74;93.62;101209.78;5041811;28;20108;-66
2022/06/07 07:17:22;;;;;;;37.53;34.13;;;;;;;13.73;93.15;101208.13;5045541;28;20029;-66
2022/06/07 07:19:48;;;;;;;38.13;34.53;;;;;;;13.74;92.71;101214.16;5045067;28;20029;-67
2022/06/07 07:22:13;;;;;;;38.70;34.95;;;;;;;13.76;93.13;101207.88;5038292;28;20450;-69
2022/06/07 07:24:39;;;;;;;39.78;36.10;;;;;;;13.87;92.89;101212.09;5038926;28;20028;-70
2022/06/07 07:27:04;;;;;;;40.58;36.85;;;;;;;13.90;93.18;101213.63;5037210;28;20070;-66
2022/06/07 07:29:29;;;;;;;41.75;37.85;;;;;;;13.94;92.58;101215.00;5032699;28;20531;-67
2022/06/07 07:31:55;;;;;;;42.30;38.30;;;;;;;14.00;92.88;101204.03;5042841;28;20032;-70
2022/06/07 07:34:21;;;;;;;40.55;36.80;;;;;;;14.09;92.26;101213.63;5043159;28;20032;-67
2022/06/07 07:36:50;;;;;;;41.35;37.65;;;;;;;14.13;91.40;101228.03;5044737;28;20025;-67
2022/06/07 07:39:15;;;;;;;41.58;37.58;;;;;;;14.28;91.72;101223.22;5044777;28;20035;-70
2022/06/07 07:41:42;;;;;;;40.63;36.85;;;;;;;14.34;91.22;101213.06;5035075;28;20025;-67
2022/06/07 07:44:11;;;;;;;40.03;36.22;;;;;;;14.44;91.07;101212.19;5038067;28;20057;-67
2022/06/07 07:46:38;;;;;;;40.72;36.92;;;;;;;14.50;91.29;101201.22;5037790;28;20099;-68
2022/06/07 07:49:04;;;;;;;39.30;35.80;;;;;;;14.62;90.77;101215.75;5033153;28;20121;-67
2022/06/07 07:51:36;;;;;;;38.80;35.15;;;;;;;14.57;89.61;101208.34;5032020;28;20520;-66
2022/06/07 07:54:03;;;;;;;40.17;36.47;;;;;;;14.62;89.60;101210.53;5030121;28;20037;-69
2022/06/07 07:56:29;;;;;;;37.83;34.35;;;;;;;14.66;89.24;101211.88;5037281;28;20032;-66
2022/06/07 07:58:56;;;;;;;38.17;34.72;;;;;;;14.63;88.42;101217.41;5048432;28;20423;-67
2022/06/07 08:01:24;;;;;;;39.75;36.08;;;;;;;14.60;89.36;101212.47;5048475;28;20074;-67
2022/06/07 08:03:52;;;;;;;38.67;35.22;;;;;;;14.62;89.01;101220.97;5042939;28;20123;-68
2022/06/07 08:06:19;;;;;;;39.55;35.97;;;;;;;14.59;88.23;101226.47;5046578;28;20495;-67
2022/06/07 08:08:46;;;;;;;41.53;37.53;;;;;;;14.63;88.13;101216.59;5045007;28;20028;-67
2022/06/07 08:11:13;;;;;;;40.63;37.00;;;;;;;14.59;87.86;101216.03;5037796;28;20025;-66
2022/06/07 08:13:38;;;;;;;38.97;35.42;;;;;;;14.66;87.89;101221.50;5046983;28;20477;-67
2022/06/07 08:16:06;;;;;;;39.15;35.55;;;;;;;14.56;87.73;101216.31;5047248;28;20040;-66
2022/06/07 08:18:33;;;;;;;39.33;35.70;;;;;;;14.62;87.21;101210.53;5048277;28;20054;-67
2022/06/07 08:21:01;;;;;;;40.38;36.65;;;;;;;14.57;86.74;101223.19;5042924;28;20076;-67
2022/06/07 08:23:28;;;;;;;40.25;36.75;;;;;;;14.63;86.68;101220.03;5031757;28;20029;-67
2022/06/07 08:25:58;;;;;;;38.70;35.28;;;;;;;14.66;87.36;101217.13;5043487;28;20035;-67
2022/06/07 08:28:24;;;;;;;39.30;35.80;;;;;;;14.67;87.12;101223.97;5046150;28;20476;-67
2022/06/07 08:30:50;;;;;;;39.10;35.63;;;;;;;14.67;87.14;101221.38;5044863;28;20505;-67
2022/06/07 08:38:44;;;;;;;37.45;34.03;;;;;;;14.86;86.53;101218.72;5048068;28;20106;-66
2022/06/07 08:41:47;;;;;;;37.63;34.22;;;;;;;14.92;86.41;101226.94;5042201;28;20088;-66
2022/06/07 08:44:33;;;;;;;37.40;34.00;;;;;;;14.94;86.65;101225.00;5026135;28;20099;-68
2022/06/07 08:47:05;;;;;;;36.22;32.75;;;;;;;14.84;85.98;101225.84;5026772;28;20045;-67
2022/06/07 08:49:30;;;;;;;36.05;32.75;;;;;;;14.87;85.62;101220.34;5025414;28;20417;-66
2022/06/07 08:52:04;;;;;;;34.22;31.13;;;;;;;14.83;85.42;101229.41;5009341;28;20084;-69
2022/06/07 08:54:35;;;;;;;33.58;30.67;;;;;;;14.92;85.74;101226.94;5026122;28;20096;-67
2022/06/07 08:57:12;;;;;;;33.88;30.83;;;;;;;15.00;85.83;101234.88;5026414;28;20656;-66
2022/06/07 08:59:37;;;;;;;33.50;30.42;;;;;;;14.98;85.76;101231.59;5024894;28;20037;-67
2022/06/07 09:02:12;;;;;;;32.28;29.38;;;;;;;15.02;85.17;101238.16;5025773;28;20497;-66
2022/06/07 09:04:39;;;;;;;33.08;30.17;;;;;;;15.00;85.62;101229.63;5025811;28;20167;-67
2022/06/07 09:07:25;;;;;;;34.17;31.08;;;;;;;15.09;86.23;101239.25;5023979;28;20046;-70
2022/06/07 09:12:56;;;;;;;34.85;31.85;;;;;;;15.22;85.75;101226.66;5023517;28;20088;-67
2022/06/07 09:15:25;;;;;;;33.75;30.75;;;;;;;15.23;85.04;101211.78;5022641;28;20025;-67
2022/06/07 09:17:55;;;;;;;34.35;31.45;;;;;;;15.32;85.00;101224.81;5025791;28;20033;-67
2022/06/07 09:20:23;;;;;;;34.83;31.73;;;;;;;15.35;84.55;101216.66;5033620;28;20504;-66
2022/06/07 09:22:57;;;;;;;35.25;31.95;;;;;;;15.36;84.61;101231.38;5047413;28;20052;-66
2022/06/07 09:25:37;;;;;;;34.83;31.73;;;;;;;15.40;85.14;101229.31;5047134;28;20037;-67
2022/06/07 09:28:10;;;;;;;35.28;32.10;;;;;;;15.37;84.59;101233.03;5047188;28;20048;-66
2022/06/07 09:30:43;;;;;;;32.92;29.98;;;;;;;15.40;84.01;101224.06;5041001;28;20032;-67
2022/06/07 09:33:10;;;;;;;35.53;32.33;;;;;;;15.49;84.57;101225.00;5043496;28;20032;-71
2022/06/07 09:35:42;;;;;;;34.13;31.08;;;;;;;15.53;84.09;101226.31;5040251;28;20033;-66
2022/06/07 09:38:21;;;;;;;35.47;32.38;;;;;;;15.71;85.00;101227.19;5045975;28;20032;-66
2022/06/07 09:40:53;;;;;;;33.38;30.38;;;;;;;15.79;84.47;101232.53;5044839;28;20067;-67
2022/06/07 09:43:38;;;;;;;33.10;30.00;;;;;;;15.83;84.93;101228.66;5040546;28;20024;-66
2022/06/07 09:46:09;;;;;;;33.30;30.50;;;;;;;15.97;84.90;101229.09;5042434;28;20032;-66
2022/06/07 09:48:43;;;;;;;32.00;29.33;;;;;;;15.90;83.21;101239.31;5042090;28;20037;-69
2022/06/07 09:51:34;;;;;;;33.67;30.67;;;;;;;15.81;82.19;101225.34;5042930;28;20045;-67
2022/06/07 09:54:03;;;;;;;33.17;30.17;;;;;;;15.91;83.04;101230.50;5040074;28;20033;-68
2022/06/07 09:56:54;;;;;;;34.55;31.65;;;;;;;16.04;83.11;101230.13;5043088;28;20032;-67
2022/06/07 09:59:46;;;;;;;34.25;31.35;;;;;;;16.06;82.57;101236.03;5042406;28;20151;-67
2022/06/07 10:02:45;;;;;;;35.55;32.47;;;;;;;16.21;82.94;101226.66;5039090;28;20032;-66
2022/06/07 10:05:30;;;;;;;34.97;31.77;;;;;;;16.24;82.04;101231.59;5039996;28;20104;-66
2022/06/07 10:08:11;;;;;;;34.50;31.60;;;;;;;16.32;81.73;101239.50;5039528;28;20056;-67
2022/06/07 10:11:02;;;;;;;34.28;31.35;;;;;;;16.46;82.23;101233.72;5036726;28;20063;-66
2022/06/07 10:13:31;;;;;;;33.42;30.33;;;;;;;16.42;80.89;101228.94;5043046;28;20029;-66
2022/06/07 10:16:27;;;;;;;33.33;30.50;;;;;;;16.55;80.87;101225.91;5040319;28;20024;-66
2022/06/07 10:19:13;;;;;;;32.33;29.48;;;;;;;16.61;80.95;101217.44;5032916;28;20067;-66
2022/06/07 10:21:50;;;;;;;32.30;29.60;;;;;;;16.72;81.10;101218.03;5037089;28;20032;-65
2022/06/07 10:24:21;;;;;;;29.27;26.88;;;;;;;16.84;80.41;101215.94;5039378;28;20140;-66
2022/06/07 10:27:08;;;;;;;29.48;26.77;;;;;;;16.86;80.20;101211.41;5040786;28;20035;-67
2022/06/07 10:30:12;;;;;;;28.00;25.50;;;;;;;16.95;79.90;101207.81;5036344;28;20033;-66
2022/06/07 10:33:06;;;;;;;26.42;24.10;;;;;;;17.09;79.51;101205.56;5037959;28;20047;-66
2022/06/07 10:35:42;;;;;;;23.85;21.75;;;;;;;17.29;79.22;101206.97;5042241;28;20430;-66
2022/06/07 10:38:33;;;;;;;24.20;22.10;;;;;;;17.40;77.90;101204.03;5042451;28;20060;-66
2022/06/07 10:41:09;;;;;;;26.30;24.08;;;;;;;17.58;78.06;101203.91;5042506;28;20469;-67
2022/06/07 10:43:42;;;;;;;25.50;23.30;;;;;;;17.71;78.16;101200.81;5045207;28;20033;-69
2022/06/07 10:46:12;;;;;;;24.65;22.45;;;;;;;17.72;77.26;101207.72;5043580;28;20029;-66
2022/06/07 10:48:48;;;;;;;22.00;20.10;;;;;;;17.73;77.21;101214.63;5032257;28;20084;-66
2022/06/07 10:54:12;;;;;;;19.13;17.33;;;;;;;17.69;74.78;101202.78;5038219;28;20075;-68
2022/06/07 10:56:45;;;;;;;19.30;17.35;;;;;;;17.71;76.21;101200.81;5036747;28;20056;-68
2022/06/07 10:59:17;;;;;;;19.77;17.77;;;;;;;17.96;76.26;101199.88;5040698;28;20087;-67
2022/06/07 11:01:55;;;;;;;18.10;16.35;;;;;;;17.86;74.07;101206.28;5040595;28;20024;-65
2022/06/07 11:10:40;;;;;;;16.77;15.15;;;;;;;17.99;75.01;101199.53;5035486;28;20063;-67
2022/06/07 11:13:37;;;;;;;18.65;16.85;;;;;;;18.22;74.68;101198.88;5044831;28;20041;-67
2022/06/07 11:16:05;;;;;;;22.10;20.20;;;;;;;18.15;73.99;101192.66;5040425;28;20116;-65
2022/06/07 11:18:31;;;;;;;;;;;;;;;18.29;75.21;101197.22;5046190;28;20480;-65
2022/06/07 11:21:09;;;;;;;21.80;19.55;;;;;;;18.17;72.95;101201.16;5045537;28;19944;-65
2022/06/07 11:23:55;;;;;;;21.15;19.08;;;;;;;17.97;72.67;101198.91;5041877;28;20037;-68
2022/06/07 11:26:21;;;;;;;20.40;18.33;;;;;;;18.07;72.18;101192.66;5043449;28;20036;-65
2022/06/07 11:28:49;;;;;;;19.63;17.80;;;;;;;18.19;72.49;101199.22;5044408;28;20013;-65
2022/06/07 11:31:20;;;;;;;19.80;17.83;;;;;;;18.17;72.32;101195.91;5040229;28;20124;-65
2022/06/07 11:33:52;;;;;;;18.20;16.40;;;;;;;18.22;73.43;101188.38;5036235;28;20036;-65
2022/06/07 11:36:20;;;;;;;17.80;16.15;;;;;;;18.18;72.70;101194.94;5040056;28;20033;-66
2022/06/07 11:38:57;;;;;;;;;;;;;;;18.28;74.46;101195.56;5035452;28;20037;-65
2022/06/07 11:41:37;;;;;;;15.07;13.57;;;;;;;18.11;71.56;101196.59;5037191;28;20363;-68
2022/06/07 11:44:12;;;;;;;14.73;13.25;;;;;;;18.03;71.13;101195.59;5040202;28;20016;-65
2022/06/07 11:46:49;;;;;;;13.75;12.27;;;;;;;17.98;71.73;101202.34;5041314;28;20143;-66